sensor_id;sensor_type;location;lat;lon;timestamp;pressure;altitude;pressure_sealevel;temperature;humidity
60583;BME280;46415;47.536;19.066;2022-10-28T00:02:23;101855.03;;;12.50;100.00
60583;BME280;46415;47.536;19.066;2022-10-28T00:05:27;101855.56;;;12.62;100.00
60583;BME280;46415;47.536;19.066;2022-10-28T00:08:30;101851.31;;;12.58;100.00
60583;BME280;46415;47.536;19.066;2022-10-28T00:11:33;101846.38;;;12.49;100.00
60583;BME280;46415;47.536;19.066;2022-10-28T00:14:36;101848.09;;;12.50;100.00
60583;BME280;46415;47.536;19.066;2022-10-28T00:17:39;101847.84;;;12.58;100.00
60583;BME280;46415;47.536;19.066;2022-10-28T00:20:41;101843.81;;;12.48;100.00
60583;BME280;46415;47.536;19.066;2022-10-28T00:23:44;101843.81;;;12.48;100.00
60583;BME280;46415;47.536;19.066;2022-10-28T00:26:47;101841.50;;;12.37;100.00
60583;BME280;46415;47.536;19.066;2022-10-28T00:29:50;101852.97;;;12.30;100.00
60583;BME280;46415;47.536;19.066;2022-10-28T00:32:52;101857.19;;;12.34;100.00
60583;BME280;46415;47.536;19.066;2022-10-28T00:35:56;101854.22;;;12.48;100.00
60583;BME280;46415;47.536;19.066;2022-10-28T00:38:59;101858.00;;;12.38;100.00
60583;BME280;46415;47.536;19.066;2022-10-28T00:42:02;101844.31;;;12.30;100.00
60583;BME280;46415;47.536;19.066;2022-10-28T00:45:06;101850.37;;;12.30;100.00
60583;BME280;46415;47.536;19.066;2022-10-28T00:48:09;101842.19;;;12.44;100.00
60583;BME280;46415;47.536;19.066;2022-10-28T00:51:12;101844.81;;;12.44;100.00
60583;BME280;46415;47.536;19.066;2022-10-28T00:54:16;101846.00;;;12.32;100.00
60583;BME280;46415;47.536;19.066;2022-10-28T00:57:23;101839.38;;;12.20;100.00
60583;BME280;46415;47.536;19.066;2022-10-28T01:00:27;101842.03;;;12.17;100.00
60583;BME280;46415;47.536;19.066;2022-10-28T01:03:30;101835.97;;;12.17;100.00
60583;BME280;46415;47.536;19.066;2022-10-28T01:06:33;101838.69;;;12.14;100.00
60583;BME280;46415;47.536;19.066;2022-10-28T01:09:37;101836.09;;;12.12;100.00
60583;BME280;46415;47.536;19.066;2022-10-28T01:12:51;101831.75;;;12.13;100.00
60583;BME280;46415;47.536;19.066;2022-10-28T01:16:05;101842.12;;;12.14;100.00
60583;BME280;46415;47.536;19.066;2022-10-28T01:23:06;101835.19;;;12.15;100.00
60583;BME280;46415;47.536;19.066;2022-10-28T01:26:37;101826.56;;;12.13;100.00
60583;BME280;46415;47.536;19.066;2022-10-28T01:43:19;101831.03;;;12.08;100.00
60583;BME280;46415;47.536;19.066;2022-10-28T01:46:30;101825.81;;;12.08;100.00
60583;BME280;46415;47.536;19.066;2022-10-28T01:49:47;101823.41;;;12.00;100.00
60583;BME280;46415;47.536;19.066;2022-10-28T01:52:56;101825.00;;;12.06;100.00
60583;BME280;46415;47.536;19.066;2022-10-28T01:56:02;101824.94;;;12.09;100.00
60583;BME280;46415;47.536;19.066;2022-10-28T01:59:16;101817.06;;;12.10;100.00
60583;BME280;46415;47.536;19.066;2022-10-28T02:02:20;101819.94;;;12.01;100.00
60583;BME280;46415;47.536;19.066;2022-10-28T02:09:01;101811.28;;;12.01;100.00
60583;BME280;46415;47.536;19.066;2022-10-28T02:12:27;101814.69;;;12.03;100.00
60583;BME280;46415;47.536;19.066;2022-10-28T02:15:45;101812.78;;;12.09;100.00
60583;BME280;46415;47.536;19.066;2022-10-28T02:19:02;101814.75;;;12.00;100.00
60583;BME280;46415;47.536;19.066;2022-10-28T02:25:37;101819.22;;;11.95;100.00
60583;BME280;46415;47.536;19.066;2022-10-28T02:29:02;101816.81;;;11.87;100.00
60583;BME280;46415;47.536;19.066;2022-10-28T02:32:16;101813.94;;;11.98;100.00
60583;BME280;46415;47.536;19.066;2022-10-28T02:35:33;101818.34;;;11.96;100.00
60583;BME280;46415;47.536;19.066;2022-10-28T02:38:50;101817.50;;;11.95;100.00
60583;BME280;46415;47.536;19.066;2022-10-28T02:42:11;101812.31;;;11.94;100.00
60583;BME280;46415;47.536;19.066;2022-10-28T02:45:27;101820.69;;;12.05;100.00
60583;BME280;46415;47.536;19.066;2022-10-28T02:48:55;101820.91;;;11.97;100.00
60583;BME280;46415;47.536;19.066;2022-10-28T02:52:01;101817.19;;;12.06;100.00
60583;BME280;46415;47.536;19.066;2022-10-28T02:55:04;101812.87;;;12.05;100.00
60583;BME280;46415;47.536;19.066;2022-10-28T02:58:08;101805.97;;;12.04;100.00
60583;BME280;46415;47.536;19.066;2022-10-28T03:01:11;101808.47;;;12.08;100.00
60583;BME280;46415;47.536;19.066;2022-10-28T03:04:14;101811.59;;;12.21;100.00
60583;BME280;46415;47.536;19.066;2022-10-28T03:07:17;101810.59;;;12.25;100.00
60583;BME280;46415;47.536;19.066;2022-10-28T03:10:20;101814.22;;;12.19;100.00
60583;BME280;46415;47.536;19.066;2022-10-28T03:13:22;101812.00;;;12.06;100.00
60583;BME280;46415;47.536;19.066;2022-10-28T03:16:25;101809.66;;;11.97;100.00
60583;BME280;46415;47.536;19.066;2022-10-28T03:19:28;101814.91;;;11.94;100.00
60583;BME280;46415;47.536;19.066;2022-10-28T03:22:31;101814.72;;;12.01;100.00
60583;BME280;46415;47.536;19.066;2022-10-28T03:25:33;101815.63;;;12.00;100.00
60583;BME280;46415;47.536;19.066;2022-10-28T03:28:36;101818.03;;;12.08;100.00
60583;BME280;46415;47.536;19.066;2022-10-28T03:31:38;101814.56;;;12.07;100.00
60583;BME280;46415;47.536;19.066;2022-10-28T03:34:41;101810.44;;;11.99;100.00
60583;BME280;46415;47.536;19.066;2022-10-28T03:37:44;101814.94;;;11.92;100.00
60583;BME280;46415;47.536;19.066;2022-10-28T03:40:47;101809.81;;;11.91;100.00
60583;BME280;46415;47.536;19.066;2022-10-28T03:43:50;101808.00;;;11.93;100.00
60583;BME280;46415;47.536;19.066;2022-10-28T03:46:53;101810.72;;;11.88;100.00
60583;BME280;46415;47.536;19.066;2022-10-28T03:49:55;101808.25;;;11.83;100.00
60583;BME280;46415;47.536;19.066;2022-10-28T03:52:58;101805.56;;;11.86;100.00
60583;BME280;46415;47.536;19.066;2022-10-28T03:56:01;101808.97;;;11.90;100.00
60583;BME280;46415;47.536;19.066;2022-10-28T03:59:04;101804.53;;;11.92;100.00
60583;BME280;46415;47.536;19.066;2022-10-28T04:02:06;101812.28;;;11.95;100.00
60583;BME280;46415;47.536;19.066;2022-10-28T04:05:09;101810.56;;;11.94;100.00
60583;BME280;46415;47.536;19.066;2022-10-28T04:08:11;101806.22;;;11.95;100.00
60583;BME280;46415;47.536;19.066;2022-10-28T04:11:14;101817.38;;;12.00;100.00
60583;BME280;46415;47.536;19.066;2022-10-28T04:14:17;101809.31;;;12.09;100.00
60583;BME280;46415;47.536;19.066;2022-10-28T04:17:19;101810.25;;;12.06;100.00
60583;BME280;46415;47.536;19.066;2022-10-28T04:20:22;101805.06;;;12.05;100.00
60583;BME280;46415;47.536;19.066;2022-10-28T04:23:25;101805.03;;;12.06;100.00
60583;BME280;46415;47.536;19.066;2022-10-28T04:26:28;101799.59;;;12.15;100.00
60583;BME280;46415;47.536;19.066;2022-10-28T04:29:33;101790.41;;;12.02;100.00
60583;BME280;46415;47.536;19.066;2022-10-28T04:32:35;101782.78;;;11.96;100.00
60583;BME280;46415;47.536;19.066;2022-10-28T04:35:38;101778.34;;;12.00;100.00
60583;BME280;46415;47.536;19.066;2022-10-28T04:38:44;101783.63;;;11.97;100.00
60583;BME280;46415;47.536;19.066;2022-10-28T04:41:46;101773.22;;;11.97;100.00
60583;BME280;46415;47.536;19.066;2022-10-28T04:44:49;101773.06;;;12.03;100.00
60583;BME280;46415;47.536;19.066;2022-10-28T04:47:57;101775.81;;;11.97;100.00
60583;BME280;46415;47.536;19.066;2022-10-28T04:50:59;101774.62;;;12.08;100.00
60583;BME280;46415;47.536;19.066;2022-10-28T04:54:02;101770.28;;;12.09;100.00
60583;BME280;46415;47.536;19.066;2022-10-28T04:57:05;101773.06;;;12.03;100.00
60583;BME280;46415;47.536;19.066;2022-10-28T05:00:08;101767.09;;;11.98;100.00
60583;BME280;46415;47.536;19.066;2022-10-28T05:03:11;101769.31;;;12.13;100.00
60583;BME280;46415;47.536;19.066;2022-10-28T05:06:13;101769.91;;;11.92;100.00
60583;BME280;46415;47.536;19.066;2022-10-28T05:09:16;101767.38;;;11.89;100.00
60583;BME280;46415;47.536;19.066;2022-10-28T05:12:19;101775.09;;;11.92;100.00
60583;BME280;46415;47.536;19.066;2022-10-28T05:15:21;101767.38;;;11.89;100.00
60583;BME280;46415;47.536;19.066;2022-10-28T05:18:24;101772.56;;;11.89;100.00
60583;BME280;46415;47.536;19.066;2022-10-28T05:21:27;101767.62;;;11.79;100.00
60583;BME280;46415;47.536;19.066;2022-10-28T05:24:30;101770.94;;;11.84;100.00
60583;BME280;46415;47.536;19.066;2022-10-28T05:27:32;101776.94;;;11.86;100.00
60583;BME280;46415;47.536;19.066;2022-10-28T05:30:35;101778.84;;;11.80;100.00
60583;BME280;46415;47.536;19.066;2022-10-28T05:33:39;101781.56;;;11.77;100.00
60583;BME280;46415;47.536;19.066;2022-10-28T05:36:41;101780.62;;;11.79;100.00
60583;BME280;46415;47.536;19.066;2022-10-28T05:39:44;101783.38;;;11.73;100.00
60583;BME280;46415;47.536;19.066;2022-10-28T05:42:47;101791.19;;;11.73;100.00
60583;BME280;46415;47.536;19.066;2022-10-28T05:45:54;101787.78;;;11.68;100.00
60583;BME280;46415;47.536;19.066;2022-10-28T05:48:57;101790.31;;;11.73;100.00
60583;BME280;46415;47.536;19.066;2022-10-28T05:51:59;101791.19;;;11.73;100.00
60583;BME280;46415;47.536;19.066;2022-10-28T05:55:02;101797.31;;;11.69;100.00
60583;BME280;46415;47.536;19.066;2022-10-28T05:58:05;101804.13;;;11.75;100.00
60583;BME280;46415;47.536;19.066;2022-10-28T06:01:08;101801.88;;;11.61;100.00
60583;BME280;46415;47.536;19.066;2022-10-28T06:04:11;101803.50;;;11.65;100.00
60583;BME280;46415;47.536;19.066;2022-10-28T06:07:13;101819.78;;;11.72;100.00
60583;BME280;46415;47.536;19.066;2022-10-28T06:10:16;101814.59;;;11.72;100.00
60583;BME280;46415;47.536;19.066;2022-10-28T06:13:19;101817.97;;;11.77;100.00
60583;BME280;46415;47.536;19.066;2022-10-28T06:16:22;101820.69;;;11.71;100.00
60583;BME280;46415;47.536;19.066;2022-10-28T06:19:24;101813.03;;;11.65;100.00
60583;BME280;46415;47.536;19.066;2022-10-28T06:22:27;101813.91;;;11.65;100.00
60583;BME280;46415;47.536;19.066;2022-10-28T06:25:30;101819.75;;;11.75;100.00
60583;BME280;46415;47.536;19.066;2022-10-28T06:28:32;101815.41;;;11.75;100.00
60583;BME280;46415;47.536;19.066;2022-10-28T06:31:38;101814.47;;;11.78;100.00
60583;BME280;46415;47.536;19.066;2022-10-28T06:34:41;101822.31;;;11.76;100.00
60583;BME280;46415;47.536;19.066;2022-10-28T06:37:44;101816.50;;;11.65;100.00
60583;BME280;46415;47.536;19.066;2022-10-28T06:40:46;101824.19;;;11.68;100.00
60583;BME280;46415;47.536;19.066;2022-10-28T06:43:55;101824.19;;;11.70;100.00
60583;BME280;46415;47.536;19.066;2022-10-28T06:46:57;101831.00;;;11.75;100.00
60583;BME280;46415;47.536;19.066;2022-10-28T06:50:00;101824.88;;;11.78;100.00
60583;BME280;46415;47.536;19.066;2022-10-28T06:53:05;101824.28;;;11.65;100.00
60583;BME280;46415;47.536;19.066;2022-10-28T06:56:08;101829.34;;;11.71;100.00
60583;BME280;46415;47.536;19.066;2022-10-28T06:59:11;101827.28;;;11.85;100.00
60583;BME280;46415;47.536;19.066;2022-10-28T07:02:14;101830.69;;;11.88;100.00
60583;BME280;46415;47.536;19.066;2022-10-28T07:05:17;101835.56;;;12.00;100.00
60583;BME280;46415;47.536;19.066;2022-10-28T07:08:20;101843.66;;;11.89;100.00
60583;BME280;46415;47.536;19.066;2022-10-28T07:11:23;101838.75;;;11.78;100.00
60583;BME280;46415;47.536;19.066;2022-10-28T07:14:25;101840.59;;;11.72;100.00
60583;BME280;46415;47.536;19.066;2022-10-28T07:17:29;101834.44;;;11.77;100.00
60583;BME280;46415;47.536;19.066;2022-10-28T07:20:31;101836.13;;;11.78;100.00
60583;BME280;46415;47.536;19.066;2022-10-28T07:23:34;101836.84;;;11.85;100.00
60583;BME280;46415;47.536;19.066;2022-10-28T07:26:37;101842.03;;;11.85;100.00
60583;BME280;46415;47.536;19.066;2022-10-28T07:29:40;101835.84;;;11.91;100.00
60583;BME280;46415;47.536;19.066;2022-10-28T07:32:44;101828.81;;;11.93;100.00
60583;BME280;46415;47.536;19.066;2022-10-28T07:35:46;101830.53;;;11.94;100.00
60583;BME280;46415;47.536;19.066;2022-10-28T07:38:50;101834.88;;;11.93;100.00
60583;BME280;46415;47.536;19.066;2022-10-28T07:41:53;101837.34;;;11.98;100.00
60583;BME280;46415;47.536;19.066;2022-10-28T07:44:56;101845.97;;;12.00;100.00
60583;BME280;46415;47.536;19.066;2022-10-28T07:47:59;101849.12;;;12.12;100.00
60583;BME280;46415;47.536;19.066;2022-10-28T07:51:02;101852.38;;;12.20;100.00
60583;BME280;46415;47.536;19.066;2022-10-28T07:54:06;101858.72;;;12.10;100.00
60583;BME280;46415;47.536;19.066;2022-10-28T07:57:08;101845.66;;;12.12;100.00
60583;BME280;46415;47.536;19.066;2022-10-28T08:00:11;101848.81;;;12.23;100.00
60583;BME280;46415;47.536;19.066;2022-10-28T08:03:14;101851.22;;;12.31;100.00
60583;BME280;46415;47.536;19.066;2022-10-28T08:06:18;101850.00;;;12.44;100.00
60583;BME280;46415;47.536;19.066;2022-10-28T08:09:21;101846.44;;;12.46;100.00
60583;BME280;46415;47.536;19.066;2022-10-28T08:12:24;101842.81;;;12.52;100.00
60583;BME280;46415;47.536;19.066;2022-10-28T08:15:27;101827.25;;;12.50;100.00
60583;BME280;46415;47.536;19.066;2022-10-28T08:18:34;101831.44;;;12.56;100.00
60583;BME280;46415;47.536;19.066;2022-10-28T08:21:37;101828.91;;;12.53;100.00
60583;BME280;46415;47.536;19.066;2022-10-28T08:24:40;101828.50;;;12.66;100.00
60583;BME280;46415;47.536;19.066;2022-10-28T08:27:42;101821.19;;;12.79;100.00
60583;BME280;46415;47.536;19.066;2022-10-28T08:30:45;101822.09;;;12.78;100.00
60583;BME280;46415;47.536;19.066;2022-10-28T08:34:06;101822.84;;;12.82;100.00
60583;BME280;46415;47.536;19.066;2022-10-28T08:37:09;101837.06;;;12.99;100.00
60583;BME280;46415;47.536;19.066;2022-10-28T08:40:12;101841.00;;;12.85;100.00
60583;BME280;46415;47.536;19.066;2022-10-28T08:43:38;101843.91;;;13.03;100.00
60583;BME280;46415;47.536;19.066;2022-10-28T08:50:22;101851.56;;;12.51;100.00
60583;BME280;46415;47.536;19.066;2022-10-28T08:53:34;101850.97;;;12.71;100.00
60583;BME280;46415;47.536;19.066;2022-10-28T08:56:42;101842.03;;;12.79;100.00
60583;BME280;46415;47.536;19.066;2022-10-28T08:59:49;101846.94;;;12.90;100.00
60583;BME280;46415;47.536;19.066;2022-10-28T09:03:04;101848.59;;;12.92;100.00
60583;BME280;46415;47.536;19.066;2022-10-28T09:06:09;101857.06;;;12.99;100.00
60583;BME280;46415;47.536;19.066;2022-10-28T09:09:20;101865.47;;;13.08;100.00
60583;BME280;46415;47.536;19.066;2022-10-28T09:12:29;101857.31;;;13.21;100.00
60583;BME280;46415;47.536;19.066;2022-10-28T09:15:45;101862.50;;;13.22;100.00
60583;BME280;46415;47.536;19.066;2022-10-28T09:18:54;101852.44;;;13.08;100.00
60583;BME280;46415;47.536;19.066;2022-10-28T09:22:07;101857.56;;;13.12;100.00
60583;BME280;46415;47.536;19.066;2022-10-28T09:32:33;101859.59;;;13.31;100.00
60583;BME280;46415;47.536;19.066;2022-10-28T09:35:42;101854.66;;;13.22;100.00
60583;BME280;46415;47.536;19.066;2022-10-28T09:38:46;101855.50;;;13.23;100.00
60583;BME280;46415;47.536;19.066;2022-10-28T09:41:52;101854.47;;;13.28;100.00
60583;BME280;46415;47.536;19.066;2022-10-28T09:45:02;101846.69;;;13.27;100.00
60583;BME280;46415;47.536;19.066;2022-10-28T09:48:15;101844.59;;;13.38;100.00
60583;BME280;46415;47.536;19.066;2022-10-28T09:51:28;101850.81;;;13.60;100.00
60583;BME280;46415;47.536;19.066;2022-10-28T09:54:38;101852.78;;;13.54;100.00
60583;BME280;46415;47.536;19.066;2022-10-28T09:57:42;101856.94;;;13.59;100.00
60583;BME280;46415;47.536;19.066;2022-10-28T10:00:45;101853.91;;;13.46;100.00
60583;BME280;46415;47.536;19.066;2022-10-28T10:03:49;101851.81;;;13.58;100.00
60583;BME280;46415;47.536;19.066;2022-10-28T10:07:07;101844.88;;;13.57;100.00
60583;BME280;46415;47.536;19.066;2022-10-28T10:10:15;101847.31;;;13.61;100.00
60583;BME280;46415;47.536;19.066;2022-10-28T10:13:27;101850.47;;;13.71;100.00
60583;BME280;46415;47.536;19.066;2022-10-28T10:23:35;101857.97;;;13.55;100.00
60583;BME280;46415;47.536;19.066;2022-10-28T10:26:38;101859.44;;;13.64;100.00
60583;BME280;46415;47.536;19.066;2022-10-28T10:29:46;101850.16;;;13.54;100.00
60583;BME280;46415;47.536;19.066;2022-10-28T10:32:49;101853.28;;;13.65;100.00
60583;BME280;46415;47.536;19.066;2022-10-28T10:36:04;101845.31;;;13.69;100.00
60583;BME280;46415;47.536;19.066;2022-10-28T10:39:20;101849.50;;;13.75;100.00
60583;BME280;46415;47.536;19.066;2022-10-28T10:42:24;101847.03;;;13.70;100.00
60583;BME280;46415;47.536;19.066;2022-10-28T10:45:28;101846.97;;;13.72;100.00
60583;BME280;46415;47.536;19.066;2022-10-28T10:48:32;101836.47;;;13.73;100.00
60583;BME280;46415;47.536;19.066;2022-10-28T10:51:37;101840.66;;;13.79;100.00
60583;BME280;46415;47.536;19.066;2022-10-28T10:55:05;101837.25;;;14.02;100.00
60583;BME280;46415;47.536;19.066;2022-10-28T10:58:18;101836.87;;;13.87;100.00
60583;BME280;46415;47.536;19.066;2022-10-28T11:01:24;101831.28;;;13.98;100.00
60583;BME280;46415;47.536;19.066;2022-10-28T11:04:28;101831.50;;;13.92;100.00
60583;BME280;46415;47.536;19.066;2022-10-28T11:07:32;101834.47;;;14.06;100.00
60583;BME280;46415;47.536;19.066;2022-10-28T11:10:35;101834.81;;;13.97;100.00
60583;BME280;46415;47.536;19.066;2022-10-28T11:13:39;101835.00;;;13.91;100.00
60583;BME280;46415;47.536;19.066;2022-10-28T11:16:52;101836.13;;;13.84;100.00
60583;BME280;46415;47.536;19.066;2022-10-28T11:19:58;101824.69;;;13.88;100.00
60583;BME280;46415;47.536;19.066;2022-10-28T11:26:17;101826.37;;;13.89;100.00
60583;BME280;46415;47.536;19.066;2022-10-28T11:29:22;101828.69;;;13.98;100.00
60583;BME280;46415;47.536;19.066;2022-10-28T11:36:11;101830.31;;;13.76;100.00
60583;BME280;46415;47.536;19.066;2022-10-28T11:39:26;101823.69;;;13.66;100.00
60583;BME280;46415;47.536;19.066;2022-10-28T11:42:51;101813.03;;;13.72;100.00
60583;BME280;46415;47.536;19.066;2022-10-28T11:52:41;101809.44;;;13.76;100.00
60583;BME280;46415;47.536;19.066;2022-10-28T12:06:14;101793.44;;;13.60;100.00
60583;BME280;46415;47.536;19.066;2022-10-28T12:13:02;101785.66;;;13.59;100.00
60583;BME280;46415;47.536;19.066;2022-10-28T12:19:55;101774.81;;;13.71;100.00
60583;BME280;46415;47.536;19.066;2022-10-28T12:23:03;101774.38;;;13.83;100.00
60583;BME280;46415;47.536;19.066;2022-10-28T12:26:12;101772.31;;;13.93;100.00
60583;BME280;46415;47.536;19.066;2022-10-28T12:29:24;101771.91;;;13.80;100.00
60583;BME280;46415;47.536;19.066;2022-10-28T12:32:32;101780.16;;;13.68;100.00
60583;BME280;46415;47.536;19.066;2022-10-28T12:35:42;101769.75;;;13.66;100.00
60583;BME280;46415;47.536;19.066;2022-10-28T12:38:55;101773.16;;;13.68;100.00
60583;BME280;46415;47.536;19.066;2022-10-28T12:42:09;101767.91;;;13.70;100.00
60583;BME280;46415;47.536;19.066;2022-10-28T12:45:16;101761.06;;;13.66;100.00
60583;BME280;46415;47.536;19.066;2022-10-28T12:51:36;101767.56;;;13.54;100.00
60583;BME280;46415;47.536;19.066;2022-10-28T12:54:50;101765.50;;;13.64;100.00
60583;BME280;46415;47.536;19.066;2022-10-28T12:58:03;101756.28;;;13.54;100.00
60583;BME280;46415;47.536;19.066;2022-10-28T13:01:16;101756.59;;;13.44;100.00
60583;BME280;46415;47.536;19.066;2022-10-28T13:04:20;101749.41;;;13.51;100.00
60583;BME280;46415;47.536;19.066;2022-10-28T13:07:38;101747.50;;;13.56;100.00
60583;BME280;46415;47.536;19.066;2022-10-28T13:20:45;101738.78;;;13.31;100.00
60583;BME280;46415;47.536;19.066;2022-10-28T13:24:02;101743.34;;;13.24;100.00
60583;BME280;46415;47.536;19.066;2022-10-28T13:27:11;101746.66;;;13.29;100.00
60583;BME280;46415;47.536;19.066;2022-10-28T13:30:16;101746.66;;;13.29;100.00
60583;BME280;46415;47.536;19.066;2022-10-28T13:33:22;101746.97;;;13.20;100.00
60583;BME280;46415;47.536;19.066;2022-10-28T13:36:27;101743.97;;;13.32;100.00
60583;BME280;46415;47.536;19.066;2022-10-28T13:39:45;101751.00;;;13.29;100.00
60583;BME280;46415;47.536;19.066;2022-10-28T13:42:48;101747.47;;;13.31;100.00
60583;BME280;46415;47.536;19.066;2022-10-28T13:45:53;101742.50;;;13.24;100.00
60583;BME280;46415;47.536;19.066;2022-10-28T13:49:23;101744.84;;;13.31;100.00
60583;BME280;46415;47.536;19.066;2022-10-28T13:52:26;101741.34;;;13.32;100.00
60583;BME280;46415;47.536;19.066;2022-10-28T13:58:49;101740.50;;;13.32;100.00
60583;BME280;46415;47.536;19.066;2022-10-28T14:05:19;101749.91;;;13.36;100.00
60583;BME280;46415;47.536;19.066;2022-10-28T14:08:32;101750.06;;;13.31;100.00
60583;BME280;46415;47.536;19.066;2022-10-28T14:11:36;101753.69;;;13.27;100.00
60583;BME280;46415;47.536;19.066;2022-10-28T14:15:04;101743.81;;;13.37;100.00
60583;BME280;46415;47.536;19.066;2022-10-28T14:28:53;101754.34;;;13.06;100.00
60583;BME280;46415;47.536;19.066;2022-10-28T14:35:43;101740.53;;;13.04;100.00
60583;BME280;46415;47.536;19.066;2022-10-28T14:42:20;101744.44;;;13.17;100.00
60583;BME280;46415;47.536;19.066;2022-10-28T14:48:44;101750.16;;;13.00;100.00
60583;BME280;46415;47.536;19.066;2022-10-28T14:51:48;101745.50;;;12.84;100.00
60583;BME280;46415;47.536;19.066;2022-10-28T14:54:57;101746.38;;;12.83;100.00
60583;BME280;46415;47.536;19.066;2022-10-28T15:01:23;101738.69;;;12.80;100.00
60583;BME280;46415;47.536;19.066;2022-10-28T15:04:27;101735.97;;;12.83;100.00
60583;BME280;46415;47.536;19.066;2022-10-28T15:07:30;101736.81;;;12.83;100.00
60583;BME280;46415;47.536;19.066;2022-10-28T15:10:39;101731.00;;;12.75;100.00
60583;BME280;46415;47.536;19.066;2022-10-28T15:13:51;101732.31;;;12.88;100.00
60583;BME280;46415;47.536;19.066;2022-10-28T15:16:54;101727.88;;;12.64;100.00
60583;BME280;46415;47.536;19.066;2022-10-28T15:19:59;101724.69;;;12.54;100.00
60583;BME280;46415;47.536;19.066;2022-10-28T15:26:14;101708.22;;;12.54;100.00
60583;BME280;46415;47.536;19.066;2022-10-28T15:29:17;101711.81;;;12.50;100.00
60583;BME280;46415;47.536;19.066;2022-10-28T15:41:39;101702.25;;;12.50;100.00
60583;BME280;46415;47.536;19.066;2022-10-28T15:44:43;101697.84;;;12.52;100.00
60583;BME280;46415;47.536;19.066;2022-10-28T15:47:47;101703.94;;;12.51;100.00
60583;BME280;46415;47.536;19.066;2022-10-28T15:51:09;101703.00;;;12.54;100.00
60583;BME280;46415;47.536;19.066;2022-10-28T15:54:18;101700.06;;;12.64;100.00
60583;BME280;46415;47.536;19.066;2022-10-28T15:57:22;101702.94;;;12.57;100.00
60583;BME280;46415;47.536;19.066;2022-10-28T16:00:30;101707.28;;;12.56;100.00
60583;BME280;46415;47.536;19.066;2022-10-28T16:06:41;101710.81;;;12.54;100.00
60583;BME280;46415;47.536;19.066;2022-10-28T16:09:46;101715.19;;;12.53;100.00
60583;BME280;46415;47.536;19.066;2022-10-28T16:12:49;101704.78;;;12.52;100.00
60583;BME280;46415;47.536;19.066;2022-10-28T16:16:07;101706.81;;;12.44;100.00
60583;BME280;46415;47.536;19.066;2022-10-28T16:19:23;101705.84;;;12.46;100.00
60583;BME280;46415;47.536;19.066;2022-10-28T16:22:28;101713.03;;;12.38;100.00
60583;BME280;46415;47.536;19.066;2022-10-28T16:25:32;101706.84;;;12.42;100.00
60583;BME280;46415;47.536;19.066;2022-10-28T16:28:34;101700.91;;;12.37;100.00
60583;BME280;46415;47.536;19.066;2022-10-28T16:31:39;101708.06;;;12.31;100.00
60583;BME280;46415;47.536;19.066;2022-10-28T16:34:42;101703.16;;;12.20;100.00
60583;BME280;46415;47.536;19.066;2022-10-28T16:37:46;101704.69;;;12.27;100.00
60583;BME280;46415;47.536;19.066;2022-10-28T16:40:56;101705.63;;;12.24;100.00
60583;BME280;46415;47.536;19.066;2022-10-28T16:44:00;101708.37;;;12.20;100.00
60583;BME280;46415;47.536;19.066;2022-10-28T16:47:10;101707.41;;;12.22;100.00
60583;BME280;46415;47.536;19.066;2022-10-28T16:50:14;101715.94;;;12.27;100.00
60583;BME280;46415;47.536;19.066;2022-10-28T16:53:18;101714.25;;;12.26;100.00
60583;BME280;46415;47.536;19.066;2022-10-28T16:56:21;101729.09;;;12.23;100.00
60583;BME280;46415;47.536;19.066;2022-10-28T16:59:24;101718.59;;;12.26;100.00
60583;BME280;46415;47.536;19.066;2022-10-28T17:02:30;101714.16;;;12.30;100.00
60583;BME280;46415;47.536;19.066;2022-10-28T17:05:34;101720.44;;;12.22;100.00
60583;BME280;46415;47.536;19.066;2022-10-28T17:08:37;101718.69;;;12.23;100.00
60583;BME280;46415;47.536;19.066;2022-10-28T17:12:00;101721.28;;;12.23;100.00
60583;BME280;46415;47.536;19.066;2022-10-28T17:15:03;101711.69;;;12.25;100.00
60583;BME280;46415;47.536;19.066;2022-10-28T17:18:09;101715.41;;;12.16;100.00
60583;BME280;46415;47.536;19.066;2022-10-28T17:21:12;101717.72;;;12.27;100.00
60583;BME280;46415;47.536;19.066;2022-10-28T17:24:15;101715.94;;;12.27;100.00
60583;BME280;46415;47.536;19.066;2022-10-28T17:27:18;101716.78;;;12.28;100.00
60583;BME280;46415;47.536;19.066;2022-10-28T17:30:22;101717.78;;;12.24;100.00
60583;BME280;46415;47.536;19.066;2022-10-28T17:33:25;101716.22;;;12.48;100.00
60583;BME280;46415;47.536;19.066;2022-10-28T17:36:29;101706.88;;;12.41;100.00
60583;BME280;46415;47.536;19.066;2022-10-28T17:39:33;101720.84;;;12.38;100.00
60583;BME280;46415;47.536;19.066;2022-10-28T17:42:36;101722.81;;;12.30;100.00
60583;BME280;46415;47.536;19.066;2022-10-28T17:45:40;101725.47;;;12.28;100.00
60583;BME280;46415;47.536;19.066;2022-10-28T17:48:43;101719.47;;;12.26;100.00
60583;BME280;46415;47.536;19.066;2022-10-28T17:51:45;101716.62;;;12.34;100.00
60583;BME280;46415;47.536;19.066;2022-10-28T17:54:50;101713.03;;;12.38;100.00
60583;BME280;46415;47.536;19.066;2022-10-28T17:57:53;101722.59;;;12.38;100.00
60583;BME280;46415;47.536;19.066;2022-10-28T18:00:58;101726.09;;;12.37;100.00
60583;BME280;46415;47.536;19.066;2022-10-28T18:04:02;101720.94;;;12.35;100.00